<?xml version="1.0" encoding="UTF-8" standalone="no" ?>
<gpx xmlns="http://www.topografix.com/GPX/1/1" xmlns:xsi="http://www.w3.org/2001/XMLSchema-instance" xsi:schemaLocation="http://www.topografix.com/GPX/1/1 http://www.topografix.com/GPX/1/1/gpx.xsd" version="1.1" creator="VisuGPX - https://www.visugpx.com">
  <metadata>
    <name>BreuilBarret_Escapade_20km</name>
    <desc><![CDATA[gnerando idor:8031536]]></desc>
  </metadata>
  <trk>
    <name><![CDATA[BreuilBarret_Escapade_19.8km-8031536]]></name>
    <extensions>
      <line xmlns="http://www.topografix.com/GPX/gpx_style/0/2">
        <color>0000FF</color>
        <width>4</width>
      </line>
    </extensions>
    <trkseg>
      <trkpt lat="46.65268" lon="-0.68186">
        <ele>145</ele>
        <time>2023-10-31T17:35:55Z</time>
      </trkpt>
      <trkpt lat="46.65392" lon="-0.68224">
        <ele>147</ele>
        <time>2023-10-31T17:38:44Z</time>
      </trkpt>
      <trkpt lat="46.65497" lon="-0.68224">
        <ele>148</ele>
        <time>2023-10-31T17:41:04Z</time>
      </trkpt>
      <trkpt lat="46.65778" lon="-0.67729">
        <ele>180</ele>
        <time>2023-10-31T17:50:53Z</time>
      </trkpt>
      <trkpt lat="46.6598" lon="-0.67349">
        <ele>189</ele>
        <time>2023-10-31T17:58:13Z</time>
      </trkpt>
      <trkpt lat="46.66039" lon="-0.67054">
        <ele>178</ele>
        <time>2023-10-31T18:02:54Z</time>
      </trkpt>
      <trkpt lat="46.66313" lon="-0.66949">
        <ele>183</ele>
        <time>2023-10-31T18:09:12Z</time>
      </trkpt>
      <trkpt lat="46.66319" lon="-0.66816">
        <ele>185</ele>
        <time>2023-10-31T18:11:14Z</time>
      </trkpt>
      <trkpt lat="46.66372" lon="-0.66626">
        <ele>181</ele>
        <time>2023-10-31T18:14:22Z</time>
      </trkpt>
      <trkpt lat="46.66446" lon="-0.6667">
        <ele>174</ele>
        <time>2023-10-31T18:16:09Z</time>
      </trkpt>
      <trkpt lat="46.66727" lon="-0.66466">
        <ele>172</ele>
        <time>2023-10-31T18:23:08Z</time>
      </trkpt>
      <trkpt lat="46.66868" lon="-0.66347">
        <ele>178</ele>
        <time>2023-10-31T18:26:45Z</time>
      </trkpt>
      <trkpt lat="46.66977" lon="-0.66155">
        <ele>195</ele>
        <time>2023-10-31T18:30:33Z</time>
      </trkpt>
      <trkpt lat="46.67375" lon="-0.65865">
        <ele>216</ele>
        <time>2023-10-31T18:40:27Z</time>
      </trkpt>
      <trkpt lat="46.67493" lon="-0.65699">
        <ele>220</ele>
        <time>2023-10-31T18:44:06Z</time>
      </trkpt>
      <trkpt lat="46.67398" lon="-0.65587">
        <ele>218</ele>
        <time>2023-10-31T18:46:49Z</time>
      </trkpt>
      <trkpt lat="46.67135" lon="-0.65145">
        <ele>227</ele>
        <time>2023-10-31T18:55:45Z</time>
      </trkpt>
      <trkpt lat="46.66909" lon="-0.64881">
        <ele>230</ele>
        <time>2023-10-31T19:02:11Z</time>
      </trkpt>
      <trkpt lat="46.66782" lon="-0.64848">
        <ele>222</ele>
        <time>2023-10-31T19:05:04Z</time>
      </trkpt>
      <trkpt lat="46.66723" lon="-0.64868">
        <ele>220</ele>
        <time>2023-10-31T19:06:24Z</time>
      </trkpt>
      <trkpt lat="46.66736" lon="-0.65191">
        <ele>206</ele>
        <time>2023-10-31T19:11:21Z</time>
      </trkpt>
      <trkpt lat="46.66823" lon="-0.65389">
        <ele>201</ele>
        <time>2023-10-31T19:14:56Z</time>
      </trkpt>
      <trkpt lat="46.66795" lon="-0.65581">
        <ele>196</ele>
        <time>2023-10-31T19:17:56Z</time>
      </trkpt>
      <trkpt lat="46.66528" lon="-0.65739">
        <ele>205</ele>
        <time>2023-10-31T19:24:20Z</time>
      </trkpt>
      <trkpt lat="46.66342" lon="-0.65911">
        <ele>188</ele>
        <time>2023-10-31T19:29:14Z</time>
      </trkpt>
      <trkpt lat="46.66233" lon="-0.66221">
        <ele>192</ele>
        <time>2023-10-31T19:34:33Z</time>
      </trkpt>
      <trkpt lat="46.66242" lon="-0.66505">
        <ele>193</ele>
        <time>2023-10-31T19:38:54Z</time>
      </trkpt>
      <trkpt lat="46.66337" lon="-0.67034">
        <ele>183</ele>
        <time>2023-10-31T19:47:14Z</time>
      </trkpt>
      <trkpt lat="46.66247" lon="-0.67344">
        <ele>181</ele>
        <time>2023-10-31T19:52:23Z</time>
      </trkpt>
      <trkpt lat="46.66075" lon="-0.67608">
        <ele>174</ele>
        <time>2023-10-31T19:57:56Z</time>
      </trkpt>
      <trkpt lat="46.66088" lon="-0.67628">
        <ele>171</ele>
        <time>2023-10-31T19:58:21Z</time>
      </trkpt>
      <trkpt lat="46.65925" lon="-0.67721">
        <ele>185</ele>
        <time>2023-10-31T20:02:15Z</time>
      </trkpt>
      <trkpt lat="46.65698" lon="-0.67701">
        <ele>174</ele>
        <time>2023-10-31T20:07:18Z</time>
      </trkpt>
      <trkpt lat="46.65563" lon="-0.67647">
        <ele>168</ele>
        <time>2023-10-31T20:10:25Z</time>
      </trkpt>
      <trkpt lat="46.6548" lon="-0.67548">
        <ele>167</ele>
        <time>2023-10-31T20:12:48Z</time>
      </trkpt>
      <trkpt lat="46.65344" lon="-0.67421">
        <ele>160</ele>
        <time>2023-10-31T20:16:24Z</time>
      </trkpt>
      <trkpt lat="46.65185" lon="-0.67388">
        <ele>159</ele>
        <time>2023-10-31T20:19:58Z</time>
      </trkpt>
      <trkpt lat="46.65034" lon="-0.67377">
        <ele>163</ele>
        <time>2023-10-31T20:23:20Z</time>
      </trkpt>
      <trkpt lat="46.64947" lon="-0.6746">
        <ele>165</ele>
        <time>2023-10-31T20:25:39Z</time>
      </trkpt>
      <trkpt lat="46.64679" lon="-0.67482">
        <ele>165</ele>
        <time>2023-10-31T20:31:37Z</time>
      </trkpt>
      <trkpt lat="46.64426" lon="-0.67526">
        <ele>158</ele>
        <time>2023-10-31T20:37:17Z</time>
      </trkpt>
      <trkpt lat="46.64392" lon="-0.67449">
        <ele>160</ele>
        <time>2023-10-31T20:38:41Z</time>
      </trkpt>
      <trkpt lat="46.64279" lon="-0.67482">
        <ele>161</ele>
        <time>2023-10-31T20:41:15Z</time>
      </trkpt>
      <trkpt lat="46.64181" lon="-0.67449">
        <ele>163</ele>
        <time>2023-10-31T20:43:29Z</time>
      </trkpt>
      <trkpt lat="46.63999" lon="-0.67025">
        <ele>176</ele>
        <time>2023-10-31T20:51:07Z</time>
      </trkpt>
      <trkpt lat="46.63924" lon="-0.66811">
        <ele>170</ele>
        <time>2023-10-31T20:54:47Z</time>
      </trkpt>
      <trkpt lat="46.63606" lon="-0.66618">
        <ele>167</ele>
        <time>2023-10-31T21:02:27Z</time>
      </trkpt>
      <trkpt lat="46.63383" lon="-0.66442">
        <ele>150</ele>
        <time>2023-10-31T21:08:05Z</time>
      </trkpt>
      <trkpt lat="46.63172" lon="-0.66206">
        <ele>129</ele>
        <time>2023-10-31T21:14:00Z</time>
      </trkpt>
      <trkpt lat="46.63074" lon="-0.66299">
        <ele>126</ele>
        <time>2023-10-31T21:16:36Z</time>
      </trkpt>
      <trkpt lat="46.63036" lon="-0.66305">
        <ele>124</ele>
        <time>2023-10-31T21:17:27Z</time>
      </trkpt>
      <trkpt lat="46.62963" lon="-0.66303">
        <ele>121</ele>
        <time>2023-10-31T21:19:05Z</time>
      </trkpt>
      <trkpt lat="46.62853" lon="-0.66428">
        <ele>126</ele>
        <time>2023-10-31T21:22:11Z</time>
      </trkpt>
      <trkpt lat="46.62857" lon="-0.66557">
        <ele>141</ele>
        <time>2023-10-31T21:24:09Z</time>
      </trkpt>
      <trkpt lat="46.62711" lon="-0.666">
        <ele>136</ele>
        <time>2023-10-31T21:27:28Z</time>
      </trkpt>
      <trkpt lat="46.62586" lon="-0.66716">
        <ele>122</ele>
        <time>2023-10-31T21:30:46Z</time>
      </trkpt>
      <trkpt lat="46.62238" lon="-0.67312">
        <ele>140</ele>
        <time>2023-10-31T21:42:43Z</time>
      </trkpt>
      <trkpt lat="46.62227" lon="-0.67553">
        <ele>145</ele>
        <time>2023-10-31T21:46:24Z</time>
      </trkpt>
      <trkpt lat="46.63143" lon="-0.67707">
        <ele>166</ele>
        <time>2023-10-31T22:06:55Z</time>
      </trkpt>
      <trkpt lat="46.63141" lon="-0.67763">
        <ele>165</ele>
        <time>2023-10-31T22:07:46Z</time>
      </trkpt>
      <trkpt lat="46.63394" lon="-0.69166">
        <ele>136</ele>
        <time>2023-10-31T22:29:55Z</time>
      </trkpt>
      <trkpt lat="46.63315" lon="-0.69238">
        <ele>138</ele>
        <time>2023-10-31T22:32:00Z</time>
      </trkpt>
      <trkpt lat="46.63307" lon="-0.69463">
        <ele>134</ele>
        <time>2023-10-31T22:35:26Z</time>
      </trkpt>
      <trkpt lat="46.63345" lon="-0.69711">
        <ele>135</ele>
        <time>2023-10-31T22:39:19Z</time>
      </trkpt>
      <trkpt lat="46.63394" lon="-0.6992">
        <ele>122</ele>
        <time>2023-10-31T22:42:41Z</time>
      </trkpt>
      <trkpt lat="46.63372" lon="-0.70019">
        <ele>121</ele>
        <time>2023-10-31T22:44:17Z</time>
      </trkpt>
      <trkpt lat="46.63606" lon="-0.7025">
        <ele>132</ele>
        <time>2023-10-31T22:50:34Z</time>
      </trkpt>
      <trkpt lat="46.63579" lon="-0.703">
        <ele>133</ele>
        <time>2023-10-31T22:51:32Z</time>
      </trkpt>
      <trkpt lat="46.637" lon="-0.70118">
        <ele>135</ele>
        <time>2023-10-31T22:55:24Z</time>
      </trkpt>
      <trkpt lat="46.64078" lon="-0.69694">
        <ele>142</ele>
        <time>2023-10-31T23:06:01Z</time>
      </trkpt>
      <trkpt lat="46.64233" lon="-0.6948">
        <ele>148</ele>
        <time>2023-10-31T23:10:46Z</time>
      </trkpt>
      <trkpt lat="46.64313" lon="-0.6916">
        <ele>148</ele>
        <time>2023-10-31T23:15:58Z</time>
      </trkpt>
      <trkpt lat="46.64286" lon="-0.68819">
        <ele>155</ele>
        <time>2023-10-31T23:21:13Z</time>
      </trkpt>
      <trkpt lat="46.64207" lon="-0.68577">
        <ele>150</ele>
        <time>2023-10-31T23:25:18Z</time>
      </trkpt>
      <trkpt lat="46.64101" lon="-0.6839">
        <ele>145</ele>
        <time>2023-10-31T23:29:00Z</time>
      </trkpt>
      <trkpt lat="46.64026" lon="-0.68203">
        <ele>149</ele>
        <time>2023-10-31T23:32:19Z</time>
      </trkpt>
      <trkpt lat="46.64033" lon="-0.679">
        <ele>158</ele>
        <time>2023-10-31T23:36:57Z</time>
      </trkpt>
      <trkpt lat="46.64131" lon="-0.67647">
        <ele>166</ele>
        <time>2023-10-31T23:41:23Z</time>
      </trkpt>
      <trkpt lat="46.64264" lon="-0.67554">
        <ele>160</ele>
        <time>2023-10-31T23:44:40Z</time>
      </trkpt>
      <trkpt lat="46.64555" lon="-0.67488">
        <ele>162</ele>
        <time>2023-10-31T23:51:13Z</time>
      </trkpt>
      <trkpt lat="46.64679" lon="-0.6752">
        <ele>166</ele>
        <time>2023-10-31T23:54:01Z</time>
      </trkpt>
      <trkpt lat="46.64796" lon="-0.67884">
        <ele>166</ele>
        <time>2023-11-01T00:00:09Z</time>
      </trkpt>
      <trkpt lat="46.64811" lon="-0.67889">
        <ele>165</ele>
        <time>2023-11-01T00:00:29Z</time>
      </trkpt>
      <trkpt lat="46.64913" lon="-0.68021">
        <ele>158</ele>
        <time>2023-11-01T00:03:31Z</time>
      </trkpt>
      <trkpt lat="46.64996" lon="-0.68038">
        <ele>158</ele>
        <time>2023-11-01T00:05:23Z</time>
      </trkpt>
      <trkpt lat="46.65023" lon="-0.68082">
        <ele>158</ele>
        <time>2023-11-01T00:06:17Z</time>
      </trkpt>
      <trkpt lat="46.65129" lon="-0.68104">
        <ele>153</ele>
        <time>2023-11-01T00:08:40Z</time>
      </trkpt>
      <trkpt lat="46.65144" lon="-0.68148">
        <ele>150</ele>
        <time>2023-11-01T00:09:25Z</time>
      </trkpt>
      <trkpt lat="46.652" lon="-0.6812">
        <ele>148</ele>
        <time>2023-11-01T00:10:44Z</time>
      </trkpt>
      <trkpt lat="46.6528" lon="-0.68148">
        <ele>146</ele>
        <time>2023-11-01T00:12:34Z</time>
      </trkpt>
    </trkseg>
  </trk>
</gpx>